createdAt,value
2017-01-20T00:00:08.872Z,1024.98
2017-01-20T00:01:19.489Z,1024.96
2017-01-20T00:02:29.218Z,1024.97
2017-01-20T00:03:39.588Z,1024.98
2017-01-20T00:04:49.317Z,1024.9
2017-01-20T00:05:59.038Z,1024.94
2017-01-20T00:07:09.239Z,1024.96
2017-01-20T00:08:18.964Z,1024.96
2017-01-20T00:09:28.729Z,1024.9
2017-01-20T00:10:38.467Z,1024.88
2017-01-20T00:11:48.635Z,1024.83
2017-01-20T00:12:58.801Z,1024.84
2017-01-20T00:14:08.970Z,1024.86
2017-01-20T00:15:18.755Z,1024.84
2017-01-20T00:16:28.481Z,1024.88
2017-01-20T00:17:38.646Z,1024.87
2017-01-20T00:18:48.815Z,1024.86
2017-01-20T00:19:58.572Z,1024.86
2017-01-20T00:21:08.358Z,1024.88
2017-01-20T00:22:18.087Z,1024.87
2017-01-20T00:23:27.823Z,1024.88
2017-01-20T00:24:37.549Z,1024.86
2017-01-20T00:25:47.278Z,1024.89
2017-01-20T00:26:57.491Z,1024.86
2017-01-20T00:28:06.781Z,1024.89
2017-01-20T00:29:16.506Z,1024.87
2017-01-20T00:30:26.239Z,1024.84
2017-01-20T00:31:35.968Z,1024.87
2017-01-20T00:32:45.749Z,1024.85
2017-01-20T00:33:56.362Z,1024.85
2017-01-20T00:35:06.531Z,1024.9
2017-01-20T00:36:16.708Z,1024.88
2017-01-20T00:37:26.438Z,1024.9
2017-01-20T00:38:37.099Z,1024.9
2017-01-20T00:39:46.821Z,1024.91
2017-01-20T00:40:56.545Z,1024.87
2017-01-20T00:42:07.159Z,1024.9
2017-01-20T00:43:16.924Z,1024.91
2017-01-20T00:44:26.705Z,1024.88
2017-01-20T00:45:36.902Z,1024.87
2017-01-20T00:46:47.071Z,1024.89
2017-01-20T00:47:56.796Z,1024.89
2017-01-20T00:49:06.534Z,1024.85
2017-01-20T00:50:16.759Z,1024.89
2017-01-20T00:51:26.484Z,1024.89
2017-01-20T00:52:35.778Z,1024.86
2017-01-20T00:53:45.502Z,1024.91
2017-01-20T00:54:55.228Z,1024.92
2017-01-20T00:56:05.009Z,1024.9
2017-01-20T00:57:15.178Z,1024.86
2017-01-20T00:58:24.903Z,1024.87
2017-01-20T00:59:34.632Z,1024.9
2017-01-20T01:00:44.358Z,1024.93
2017-01-20T01:01:54.611Z,1024.9
2017-01-20T01:03:04.808Z,1024.88
2017-01-20T01:04:14.112Z,1024.85
2017-01-20T01:05:23.842Z,1024.84
2017-01-20T01:06:34.019Z,1024.89
2017-01-20T01:07:43.805Z,1024.91
2017-01-20T01:08:54.414Z,1024.89
2017-01-20T01:10:03.703Z,1024.86
2017-01-20T01:11:13.432Z,1024.89
2017-01-20T01:12:23.181Z,1024.89
2017-01-20T01:13:32.961Z,1024.87
2017-01-20T01:14:42.699Z,1024.86
2017-01-20T01:15:52.868Z,1024.83
2017-01-20T01:17:02.593Z,1024.79
2017-01-20T01:18:11.886Z,1024.78
2017-01-20T01:19:21.815Z,1024.79
2017-01-20T01:20:31.536Z,1024.78
2017-01-20T01:21:40.825Z,1024.79
2017-01-20T01:22:51.438Z,1024.73
2017-01-20T01:24:01.615Z,1024.76
2017-01-20T01:25:11.403Z,1024.79
2017-01-20T01:26:21.589Z,1024.8
2017-01-20T01:27:31.314Z,1024.77
2017-01-20T01:28:41.043Z,1024.76
2017-01-20T01:29:51.212Z,1024.73
2017-01-20T01:31:00.549Z,1024.7
2017-01-20T01:32:09.838Z,1024.73
2017-01-20T01:33:19.564Z,1024.75
2017-01-20T01:34:29.289Z,1024.75
2017-01-20T01:35:39.014Z,1024.7
2017-01-20T01:36:48.795Z,1024.72
2017-01-20T01:37:58.528Z,1024.72
2017-01-20T01:39:08.697Z,1024.67
2017-01-20T01:40:18.870Z,1024.68
2017-01-20T01:41:29.056Z,1024.64
2017-01-20T01:42:38.833Z,1024.69
2017-01-20T01:43:48.562Z,1024.67
2017-01-20T01:44:58.295Z,1024.68
2017-01-20T01:46:08.024Z,1024.62
2017-01-20T01:47:17.753Z,1024.67
2017-01-20T01:48:27.530Z,1024.65
2017-01-20T01:49:37.256Z,1024.62
2017-01-20T01:50:47.425Z,1024.6
2017-01-20T01:51:57.150Z,1024.58
2017-01-20T01:53:06.879Z,1024.58
2017-01-20T01:54:17.096Z,1024.59
2017-01-20T01:55:26.813Z,1024.58
2017-01-20T01:56:36.542Z,1024.58
2017-01-20T01:57:46.268Z,1024.59
2017-01-20T01:58:55.997Z,1024.6
2017-01-20T02:00:05.766Z,1024.56
2017-01-20T02:01:15.495Z,1024.62
2017-01-20T02:02:25.669Z,1024.57
2017-01-20T02:03:35.849Z,1024.54
2017-01-20T02:04:45.135Z,1024.55
2017-01-20T02:05:54.916Z,1024.56
2017-01-20T02:07:04.641Z,1024.52
2017-01-20T02:08:14.370Z,1024.51
2017-01-20T02:09:24.104Z,1024.51
2017-01-20T02:10:34.721Z,1024.52
2017-01-20T02:11:44.502Z,1024.54
2017-01-20T02:12:54.227Z,1024.52
2017-01-20T02:14:04.397Z,1024.49
2017-01-20T02:15:14.566Z,1024.51
2017-01-20T02:16:24.299Z,1024.53
2017-01-20T02:17:34.076Z,1024.56
2017-01-20T02:18:43.801Z,1024.5
2017-01-20T02:19:53.535Z,1024.53
2017-01-20T02:21:03.712Z,1024.56
2017-01-20T02:22:13.437Z,1024.54
2017-01-20T02:23:23.222Z,1024.56
2017-01-20T02:24:33.399Z,1024.59
2017-01-20T02:25:43.572Z,1024.54
2017-01-20T02:26:53.750Z,1024.55
2017-01-20T02:28:03.923Z,1024.55
2017-01-20T02:29:13.256Z,1024.55
2017-01-20T02:30:22.985Z,1024.55
2017-01-20T02:31:32.718Z,1024.56
2017-01-20T02:32:42.892Z,1024.54
2017-01-20T02:33:53.065Z,1024.5
2017-01-20T02:35:02.850Z,1024.5
2017-01-20T02:36:12.583Z,1024.5
2017-01-20T02:37:22.436Z,1024.51
2017-01-20T02:38:32.173Z,1024.49
2017-01-20T02:39:42.342Z,1024.53
2017-01-20T02:40:52.128Z,1024.49
2017-01-20T02:42:01.865Z,1024.48
2017-01-20T02:43:11.593Z,1024.47
2017-01-20T02:44:21.767Z,1024.49
2017-01-20T02:45:31.480Z,1024.53
2017-01-20T02:46:40.809Z,1024.51
2017-01-20T02:47:50.522Z,1024.49
2017-01-20T02:49:00.240Z,1024.45
2017-01-20T02:50:09.960Z,1024.45
2017-01-20T02:51:19.673Z,1024.48
2017-01-20T02:52:29.886Z,1024.5
2017-01-20T02:53:39.608Z,1024.46
2017-01-20T02:54:48.885Z,1024.45
2017-01-20T02:55:58.169Z,1024.47
2017-01-20T02:57:07.888Z,1024.5
2017-01-20T02:58:18.536Z,1024.49
2017-01-20T02:59:28.262Z,1024.52
2017-01-20T03:00:38.415Z,1024.49
2017-01-20T03:01:48.131Z,1024.55
2017-01-20T03:02:58.733Z,1024.53
2017-01-20T03:04:08.938Z,1024.54
2017-01-20T03:05:18.655Z,1024.58
2017-01-20T03:06:28.368Z,1024.56
2017-01-20T03:07:38.105Z,1024.51
2017-01-20T03:08:47.386Z,1024.5
2017-01-20T03:09:57.156Z,1024.51
2017-01-20T03:11:06.433Z,1024.51
2017-01-20T03:12:16.586Z,1024.51
2017-01-20T03:13:26.308Z,1024.47
2017-01-20T03:14:36.460Z,1024.48
2017-01-20T03:15:47.306Z,1024.52
2017-01-20T03:16:57.019Z,1024.56
2017-01-20T03:18:07.180Z,1024.51
2017-01-20T03:19:16.469Z,1024.55
2017-01-20T03:20:26.190Z,1024.55
2017-01-20T03:21:35.956Z,1024.52
2017-01-20T03:22:45.240Z,1024.57
2017-01-20T03:23:55.830Z,1024.55
2017-01-20T03:25:05.983Z,1024.58
2017-01-20T03:26:15.260Z,1024.57
2017-01-20T03:27:25.030Z,1024.57
2017-01-20T03:28:35.183Z,1024.54
2017-01-20T03:29:45.360Z,1024.53
2017-01-20T03:30:55.074Z,1024.51
2017-01-20T03:32:05.663Z,1024.55
2017-01-20T03:33:16.023Z,1024.53
2017-01-20T03:34:26.177Z,1024.53
2017-01-20T03:35:35.460Z,1024.56
2017-01-20T03:36:45.607Z,1024.56
2017-01-20T03:37:55.760Z,1024.53
2017-01-20T03:39:05.086Z,1024.49
2017-01-20T03:40:14.362Z,1024.49
2017-01-20T03:41:24.952Z,1024.48
2017-01-20T03:42:35.101Z,1024.51
2017-01-20T03:43:44.379Z,1024.49
2017-01-20T03:44:54.575Z,1024.53
2017-01-20T03:46:04.293Z,1024.46
2017-01-20T03:47:14.890Z,1024.45
2017-01-20T03:48:25.071Z,1024.49
2017-01-20T03:49:34.788Z,1024.51
2017-01-20T03:50:44.118Z,1024.48
2017-01-20T03:51:53.837Z,1024.48
2017-01-20T03:53:03.552Z,1024.45
2017-01-20T03:54:12.825Z,1024.5
2017-01-20T03:55:22.539Z,1024.5
2017-01-20T03:56:32.303Z,1024.45
2017-01-20T03:57:42.456Z,1024.46
2017-01-20T03:58:52.170Z,1024.43
2017-01-20T04:00:02.327Z,1024.48
2017-01-20T04:01:12.040Z,1024.48
2017-01-20T04:02:21.810Z,1024.52
2017-01-20T04:03:31.963Z,1024.53
2017-01-20T04:04:42.552Z,1024.57
2017-01-20T04:05:51.829Z,1024.58
2017-01-20T04:07:01.987Z,1024.58
2017-01-20T04:08:11.759Z,1024.58
2017-01-20T04:09:21.908Z,1024.53
2017-01-20T04:10:31.189Z,1024.53
2017-01-20T04:11:41.779Z,1024.56
2017-01-20T04:12:51.495Z,1024.57
2017-01-20T04:14:01.261Z,1024.56
2017-01-20T04:15:10.970Z,1024.57
2017-01-20T04:16:21.123Z,1024.57
2017-01-20T04:17:31.280Z,1024.56
2017-01-20T04:18:41.457Z,1024.56
2017-01-20T04:19:51.666Z,1024.52
2017-01-20T04:21:01.831Z,1024.52
2017-01-20T04:22:11.980Z,1024.52
2017-01-20T04:23:22.137Z,1024.51
2017-01-20T04:24:31.867Z,1024.54
2017-01-20T04:25:42.070Z,1024.5
2017-01-20T04:26:52.664Z,1024.5
2017-01-20T04:28:01.945Z,1024.48
2017-01-20T04:29:12.106Z,1024.47
2017-01-20T04:30:22.703Z,1024.45
2017-01-20T04:31:32.468Z,1024.48
2017-01-20T04:32:43.065Z,1024.42
2017-01-20T04:33:53.246Z,1024.4
2017-01-20T04:35:02.520Z,1024.37
2017-01-20T04:36:12.232Z,1024.36
2017-01-20T04:37:22.438Z,1024.36
2017-01-20T04:38:32.164Z,1024.36
2017-01-20T04:39:41.879Z,1024.36
2017-01-20T04:40:51.593Z,1024.26
2017-01-20T04:42:01.750Z,1024.29
2017-01-20T04:43:12.387Z,1024.28
2017-01-20T04:44:22.105Z,1024.29
2017-01-20T04:45:31.382Z,1024.27
2017-01-20T04:46:40.659Z,1024.27
2017-01-20T04:47:50.400Z,1024.3
2017-01-20T04:49:00.166Z,1024.29
2017-01-20T04:50:09.887Z,1024.28
2017-01-20T04:51:20.036Z,1024.2
2017-01-20T04:52:29.753Z,1024.23
2017-01-20T04:53:39.914Z,1024.2
2017-01-20T04:54:50.120Z,1024.23
2017-01-20T04:56:00.273Z,1024.24
2017-01-20T04:57:10.030Z,1024.2
2017-01-20T04:58:19.319Z,1024.21
2017-01-20T04:59:29.473Z,1024.17
2017-01-20T05:00:39.678Z,1024.15
2017-01-20T05:01:49.839Z,1024.11
2017-01-20T05:02:59.556Z,1024.1
2017-01-20T05:04:10.150Z,1024.08
2017-01-20T05:05:20.311Z,1024.02
2017-01-20T05:06:30.172Z,1024.13
2017-01-20T05:07:39.885Z,1024.08
2017-01-20T05:08:49.607Z,1024.07
2017-01-20T05:09:59.760Z,1024.14
2017-01-20T05:11:09.465Z,1024.1
2017-01-20T05:12:18.795Z,1024.13
2017-01-20T05:13:28.076Z,1024.14
2017-01-20T05:14:37.793Z,1024.07
2017-01-20T05:15:47.951Z,1024.03
2017-01-20T05:16:57.668Z,1024.08
2017-01-20T05:18:07.977Z,1024.05
2017-01-20T05:19:17.690Z,1024.05
2017-01-20T05:20:26.967Z,1024.03
2017-01-20T05:21:37.560Z,1024.05
2017-01-20T05:22:47.278Z,1024
2017-01-20T05:23:57.047Z,1024.02
2017-01-20T05:25:06.764Z,1024.03
2017-01-20T05:26:17.354Z,1024.02
2017-01-20T05:27:27.511Z,1024.03
2017-01-20T05:28:37.228Z,1023.99
2017-01-20T05:29:46.993Z,1023.97
2017-01-20T05:30:57.147Z,1024.02
2017-01-20T05:32:07.300Z,1024.02
2017-01-20T05:33:17.017Z,1023.99
2017-01-20T05:34:27.171Z,1023.98
2017-01-20T05:35:36.935Z,1023.97
2017-01-20T05:36:47.537Z,1023.96
2017-01-20T05:37:58.126Z,1023.99
2017-01-20T05:39:07.403Z,1023.92
2017-01-20T05:40:17.120Z,1023.95
2017-01-20T05:41:26.450Z,1023.94
2017-01-20T05:42:36.163Z,1023.96
2017-01-20T05:43:46.328Z,1023.97
2017-01-20T05:44:56.050Z,1023.95
2017-01-20T05:46:06.195Z,1023.93
2017-01-20T05:47:15.972Z,1023.92
2017-01-20T05:48:26.566Z,1023.94
2017-01-20T05:49:36.286Z,1023.96
2017-01-20T05:50:46.007Z,1023.99
2017-01-20T05:51:55.289Z,1024.01
2017-01-20T05:53:05.938Z,1024.01
2017-01-20T05:54:16.096Z,1024.01
2017-01-20T05:55:25.393Z,1024.01
2017-01-20T05:56:34.682Z,1024
2017-01-20T05:57:44.395Z,1024.02
2017-01-20T05:58:54.188Z,1024.03
2017-01-20T06:00:03.906Z,1024.06
2017-01-20T06:01:14.495Z,1024.08
2017-01-20T06:02:24.640Z,1024.05
2017-01-20T06:03:34.797Z,1024.11
2017-01-20T06:04:44.126Z,1024.09
2017-01-20T06:05:53.408Z,1024.11
2017-01-20T06:07:03.129Z,1024.07
2017-01-20T06:08:12.838Z,1024.05
2017-01-20T06:09:23.435Z,1024.05
2017-01-20T06:10:34.072Z,1024.06
2017-01-20T06:11:44.663Z,1024.07
2017-01-20T06:12:54.379Z,1024
2017-01-20T06:14:04.536Z,1024.01
2017-01-20T06:15:14.253Z,1023.98
2017-01-20T06:16:24.019Z,1024
2017-01-20T06:17:34.169Z,1023.99
2017-01-20T06:18:44.324Z,1024.02
2017-01-20T06:19:54.038Z,1024.02
2017-01-20T06:21:04.192Z,1024.02
2017-01-20T06:22:13.552Z,1024.04
2017-01-20T06:23:23.270Z,1024.07
2017-01-20T06:24:32.991Z,1024.09
2017-01-20T06:25:42.704Z,1024.1
2017-01-20T06:26:51.997Z,1024.12
2017-01-20T06:28:02.202Z,1024.13
2017-01-20T06:29:12.351Z,1024.17
2017-01-20T06:30:22.512Z,1024.13
2017-01-20T06:31:32.234Z,1024.09
2017-01-20T06:32:41.949Z,1024.16
2017-01-20T06:33:52.152Z,1024.15
2017-01-20T06:35:02.305Z,1024.14
2017-01-20T06:36:12.890Z,1024.18
2017-01-20T06:37:23.483Z,1024.14
2017-01-20T06:38:33.204Z,1024.16
2017-01-20T06:39:43.850Z,1024.19
2017-01-20T06:40:54.447Z,1024.19
2017-01-20T06:42:04.160Z,1024.15
2017-01-20T06:43:14.314Z,1024.15
2017-01-20T06:44:24.902Z,1024.17
2017-01-20T06:45:35.552Z,1024.2
2017-01-20T06:46:44.836Z,1024.22
2017-01-20T06:47:54.550Z,1024.2
2017-01-20T06:49:03.827Z,1024.26
2017-01-20T06:50:13.980Z,1024.2
2017-01-20T06:51:23.750Z,1024.21
2017-01-20T06:52:33.911Z,1024.19
2017-01-20T06:53:43.184Z,1024.23
2017-01-20T06:54:52.897Z,1024.23
2017-01-20T06:56:02.646Z,1024.22
2017-01-20T06:57:12.420Z,1024.22
2017-01-20T06:58:22.576Z,1024.24
2017-01-20T06:59:32.294Z,1024.26
2017-01-20T07:00:42.447Z,1024.26
2017-01-20T07:01:52.164Z,1024.27
2017-01-20T07:03:02.374Z,1024.25
2017-01-20T07:04:12.091Z,1024.23
2017-01-20T07:05:22.243Z,1024.21
2017-01-20T07:06:31.957Z,1024.21
2017-01-20T07:07:42.114Z,1024.23
2017-01-20T07:08:52.475Z,1024.23
2017-01-20T07:10:02.628Z,1024.26
2017-01-20T07:11:12.782Z,1024.27
2017-01-20T07:12:22.495Z,1024.31
2017-01-20T07:13:32.652Z,1024.33
2017-01-20T07:14:42.417Z,1024.32
2017-01-20T07:15:53.007Z,1024.36
2017-01-20T07:17:03.604Z,1024.3
2017-01-20T07:18:12.885Z,1024.27
2017-01-20T07:19:23.038Z,1024.24
2017-01-20T07:20:32.803Z,1024.29
2017-01-20T07:21:43.400Z,1024.23
2017-01-20T07:22:53.554Z,1024.2
2017-01-20T07:24:03.703Z,1024.21
2017-01-20T07:25:14.288Z,1024.23
2017-01-20T07:26:24.053Z,1024.26
2017-01-20T07:27:34.211Z,1024.19
2017-01-20T07:28:43.496Z,1024.18
2017-01-20T07:29:53.213Z,1024.21
2017-01-20T07:31:02.930Z,1024.2
2017-01-20T07:32:13.571Z,1024.2
2017-01-20T07:33:23.292Z,1024.21
2017-01-20T07:34:33.883Z,1024.21
2017-01-20T07:35:44.035Z,1024.25
2017-01-20T07:36:53.312Z,1024.24
2017-01-20T07:38:02.649Z,1024.25
2017-01-20T07:39:12.801Z,1024.19
2017-01-20T07:40:22.952Z,1024.2
2017-01-20T07:41:33.541Z,1024.23
2017-01-20T07:42:44.131Z,1024.17
2017-01-20T07:43:53.460Z,1024.23
2017-01-20T07:45:02.732Z,1024.2
2017-01-20T07:46:12.450Z,1024.24
2017-01-20T07:47:22.163Z,1024.21
2017-01-20T07:48:31.880Z,1024.29
2017-01-20T07:49:42.525Z,1024.25
2017-01-20T07:50:51.806Z,1024.22
2017-01-20T07:52:01.528Z,1024.26
2017-01-20T07:53:11.677Z,1024.21
2017-01-20T07:54:21.822Z,1024.21
2017-01-20T07:55:31.587Z,1024.24
2017-01-20T07:56:41.740Z,1024.23
2017-01-20T07:57:51.458Z,1024.28
2017-01-20T07:59:01.170Z,1024.28
2017-01-20T08:00:11.763Z,1024.3
2017-01-20T08:01:22.404Z,1024.31
2017-01-20T08:02:32.557Z,1024.34
2017-01-20T08:03:42.274Z,1024.33
2017-01-20T08:04:51.993Z,1024.33
2017-01-20T08:06:01.724Z,1024.34
2017-01-20T08:07:11.929Z,1024.36
2017-01-20T08:08:22.086Z,1024.35
2017-01-20T08:09:32.239Z,1024.38
2017-01-20T08:10:42.389Z,1024.39
2017-01-20T08:11:51.665Z,1024.41
2017-01-20T08:13:01.441Z,1024.35
2017-01-20T08:14:10.716Z,1024.35
2017-01-20T08:15:20.481Z,1024.35
2017-01-20T08:16:30.221Z,1024.35
2017-01-20T08:17:40.370Z,1024.32
2017-01-20T08:18:50.143Z,1024.34
2017-01-20T08:20:00.300Z,1024.35
2017-01-20T08:21:10.893Z,1024.35
2017-01-20T08:22:21.486Z,1024.38
2017-01-20T08:23:30.759Z,1024.35
2017-01-20T08:24:41.120Z,1024.44
2017-01-20T08:25:50.837Z,1024.4
2017-01-20T08:27:01.002Z,1024.39
2017-01-20T08:28:10.274Z,1024.42
2017-01-20T08:29:19.999Z,1024.43
2017-01-20T08:30:30.352Z,1024.45
2017-01-20T08:31:40.074Z,1024.45
2017-01-20T08:32:49.815Z,1024.45
2017-01-20T08:34:00.408Z,1024.4
2017-01-20T08:35:09.681Z,1024.48
2017-01-20T08:36:19.879Z,1024.46
2017-01-20T08:37:29.154Z,1024.46
2017-01-20T08:38:38.875Z,1024.46
2017-01-20T08:39:49.028Z,1024.48
2017-01-20T08:40:59.621Z,1024.52
2017-01-20T08:42:08.959Z,1024.53
2017-01-20T08:43:18.235Z,1024.53
2017-01-20T08:44:27.520Z,1024.53
2017-01-20T08:45:37.233Z,1024.54
2017-01-20T08:46:46.950Z,1024.51
2017-01-20T08:47:57.159Z,1024.48
2017-01-20T08:49:07.312Z,1024.48
2017-01-20T08:50:17.486Z,1024.51
2017-01-20T08:51:27.639Z,1024.53
2017-01-20T08:52:37.359Z,1024.5
2017-01-20T08:53:47.573Z,1024.49
2017-01-20T08:54:57.295Z,1024.45
2017-01-20T08:56:06.579Z,1024.46
2017-01-20T08:57:16.745Z,1024.46
2017-01-20T08:58:26.898Z,1024.45
2017-01-20T08:59:37.127Z,1024.45
2017-01-20T09:00:46.844Z,1024.44
2017-01-20T09:01:56.577Z,1024.43
2017-01-20T09:03:05.867Z,1024.47
2017-01-20T09:04:15.144Z,1024.4
2017-01-20T09:05:24.917Z,1024.41
2017-01-20T09:06:35.510Z,1024.36
2017-01-20T09:07:45.663Z,1024.32
2017-01-20T09:08:54.949Z,1024.34
2017-01-20T09:10:04.666Z,1024.3
2017-01-20T09:11:14.871Z,1024.32
2017-01-20T09:12:24.144Z,1024.35
2017-01-20T09:13:34.726Z,1024.41
2017-01-20T09:14:44.871Z,1024.39
2017-01-20T09:15:55.464Z,1024.41
2017-01-20T09:17:05.669Z,1024.43
2017-01-20T09:18:14.955Z,1024.41
2017-01-20T09:19:25.108Z,1024.41
2017-01-20T09:20:35.265Z,1024.39
2017-01-20T09:21:45.426Z,1024.39
2017-01-20T09:22:55.195Z,1024.41
2017-01-20T09:24:05.348Z,1024.44
2017-01-20T09:25:15.065Z,1024.41
2017-01-20T09:26:25.218Z,1024.39
2017-01-20T09:27:36.272Z,1024.42
2017-01-20T09:28:45.608Z,1024.37
2017-01-20T09:29:55.762Z,1024.36
2017-01-20T09:31:05.923Z,1024.39
2017-01-20T09:32:16.081Z,1024.33
2017-01-20T09:33:25.357Z,1024.37
2017-01-20T09:34:35.566Z,1024.38
2017-01-20T09:35:44.856Z,1024.39
2017-01-20T09:36:55.013Z,1024.36
2017-01-20T09:38:04.295Z,1024.34
2017-01-20T09:39:14.019Z,1024.31
2017-01-20T09:40:23.801Z,1024.33
2017-01-20T09:41:34.394Z,1024.33
2017-01-20T09:42:44.107Z,1024.3
2017-01-20T09:43:53.385Z,1024.32
2017-01-20T09:45:03.106Z,1024.29
2017-01-20T09:46:13.743Z,1024.29
2017-01-20T09:47:23.028Z,1024.28
2017-01-20T09:48:33.186Z,1024.3
2017-01-20T09:49:42.907Z,1024.33
2017-01-20T09:50:52.628Z,1024.34
2017-01-20T09:52:02.837Z,1024.37
2017-01-20T09:53:12.122Z,1024.39
2017-01-20T09:54:21.844Z,1024.39
2017-01-20T09:55:31.121Z,1024.35
2017-01-20T09:56:40.399Z,1024.38
2017-01-20T09:57:50.167Z,1024.31
2017-01-20T09:59:00.325Z,1024.34
2017-01-20T10:00:10.047Z,1024.36
2017-01-20T10:01:20.207Z,1024.34
2017-01-20T10:02:29.924Z,1024.35
2017-01-20T10:03:39.693Z,1024.35
2017-01-20T10:04:48.971Z,1024.39
2017-01-20T10:05:59.124Z,1024.35
2017-01-20T10:07:09.042Z,1024.4
2017-01-20T10:08:21.663Z,1024.34
2017-01-20T10:09:31.432Z,1024.35
2017-01-20T10:10:42.029Z,1024.4
2017-01-20T10:11:51.751Z,1024.4
2017-01-20T10:13:01.912Z,1024.38
2017-01-20T10:14:11.192Z,1024.37
2017-01-20T10:15:21.838Z,1024.3
2017-01-20T10:16:31.551Z,1024.33
2017-01-20T10:17:41.708Z,1024.29
2017-01-20T10:18:52.302Z,1024.28
2017-01-20T10:20:02.023Z,1024.28
2017-01-20T10:21:11.352Z,1024.27
2017-01-20T10:22:21.509Z,1024.27
2017-01-20T10:23:32.102Z,1024.25
2017-01-20T10:24:41.823Z,1024.25
2017-01-20T10:25:51.984Z,1024.25
2017-01-20T10:27:01.757Z,1024.22
2017-01-20T10:28:11.470Z,1024.22
2017-01-20T10:29:21.197Z,1024.21
2017-01-20T10:30:30.485Z,1024.19
2017-01-20T10:31:40.202Z,1024.22
2017-01-20T10:32:50.411Z,1024.25
2017-01-20T10:33:59.688Z,1024.21
2017-01-20T10:35:10.290Z,1024.21
2017-01-20T10:36:20.447Z,1024.21
2017-01-20T10:37:31.484Z,1024.22
2017-01-20T10:38:41.249Z,1024.14
2017-01-20T10:39:50.966Z,1024.17
2017-01-20T10:41:01.565Z,1024.2
2017-01-20T10:42:11.288Z,1024.16
2017-01-20T10:43:21.010Z,1024.2
2017-01-20T10:44:31.211Z,1024.18
2017-01-20T10:45:40.932Z,1024.21
2017-01-20T10:46:51.530Z,1024.18
2017-01-20T10:48:01.263Z,1024.21
2017-01-20T10:49:10.980Z,1024.17
2017-01-20T10:50:20.305Z,1024.16
2017-01-20T10:51:30.054Z,1024.15
2017-01-20T10:52:39.772Z,1024.14
2017-01-20T10:53:49.497Z,1024.17
2017-01-20T10:54:59.218Z,1024.1
2017-01-20T10:56:09.423Z,1024.11
2017-01-20T10:57:19.592Z,1024.1
2017-01-20T10:58:29.762Z,1024.07
2017-01-20T10:59:39.915Z,1024.09
2017-01-20T11:00:49.664Z,1024.12
2017-01-20T11:01:59.438Z,1024.12
2017-01-20T11:03:09.155Z,1024.1
2017-01-20T11:04:18.455Z,1024.12
2017-01-20T11:05:28.177Z,1024.11
2017-01-20T11:06:38.336Z,1024.11
2017-01-20T11:07:48.544Z,1024.05
2017-01-20T11:08:58.724Z,1024.06
2017-01-20T11:10:08.446Z,1024.08
2017-01-20T11:11:18.167Z,1024.11
2017-01-20T11:12:27.448Z,1024.11
2017-01-20T11:13:37.665Z,1024.08
2017-01-20T11:14:48.251Z,1024.09
2017-01-20T11:15:57.972Z,1024.06
2017-01-20T11:17:08.569Z,1024.01
2017-01-20T11:18:19.167Z,1024.03
2017-01-20T11:19:29.876Z,1023.99
2017-01-20T11:20:45.065Z,1023.97
2017-01-20T11:21:58.934Z,1023.99
2017-01-20T11:23:09.927Z,1023.96
2017-01-20T11:24:24.097Z,1023.95
2017-01-20T11:25:37.110Z,1023.96
2017-01-20T11:26:47.267Z,1023.91
2017-01-20T11:27:57.864Z,1023.94
2017-01-20T11:29:08.230Z,1023.89
2017-01-20T11:30:18.443Z,1023.86
2017-01-20T11:31:28.168Z,1023.86
2017-01-20T11:32:38.130Z,1023.86
2017-01-20T11:33:49.171Z,1023.84
2017-01-20T11:34:59.692Z,1023.86
2017-01-20T11:36:09.477Z,1023.85
2017-01-20T11:37:18.762Z,1023.8
2017-01-20T11:38:28.984Z,1023.82
2017-01-20T11:39:39.122Z,1023.74
2017-01-20T11:40:49.730Z,1023.72
2017-01-20T11:41:59.507Z,1023.68
2017-01-20T11:43:09.224Z,1023.7
2017-01-20T11:44:18.950Z,1023.7
2017-01-20T11:45:29.115Z,1023.69
2017-01-20T11:46:38.524Z,1023.69
2017-01-20T11:47:48.441Z,1023.74
2017-01-20T11:48:58.535Z,1023.68
2017-01-20T11:50:08.628Z,1023.71
2017-01-20T11:51:19.084Z,1023.68
2017-01-20T11:52:28.834Z,1023.66
2017-01-20T11:53:38.607Z,1023.63
2017-01-20T11:54:49.204Z,1023.6
2017-01-20T11:55:58.926Z,1023.58
2017-01-20T11:57:08.647Z,1023.59
2017-01-20T11:58:18.784Z,1023.62
2017-01-20T11:59:31.334Z,1023.64
2017-01-20T12:00:41.874Z,1023.62
2017-01-20T12:01:52.380Z,1023.63
2017-01-20T12:03:03.141Z,1023.61
2017-01-20T12:04:12.432Z,1023.57
2017-01-20T12:05:22.207Z,1023.52
2017-01-20T12:06:31.924Z,1023.47
2017-01-20T12:07:42.049Z,1023.47
2017-01-20T12:08:52.486Z,1023.48
2017-01-20T12:10:02.879Z,1023.52
2017-01-20T12:11:13.113Z,1023.51
2017-01-20T12:12:23.753Z,1023.48
2017-01-20T12:13:33.035Z,1023.48
2017-01-20T12:14:42.536Z,1023.44
2017-01-20T12:15:51.841Z,1023.43
2017-01-20T12:17:01.174Z,1023.41
2017-01-20T12:18:10.464Z,1023.43
2017-01-20T12:19:20.181Z,1023.41
2017-01-20T12:20:30.274Z,1023.36
2017-01-20T12:21:39.999Z,1023.33
2017-01-20T12:22:50.016Z,1023.29
2017-01-20T12:23:59.297Z,1023.28
2017-01-20T12:25:09.582Z,1023.28
2017-01-20T12:26:20.227Z,1023.28
2017-01-20T12:27:30.092Z,1023.3
2017-01-20T12:28:40.333Z,1023.25
2017-01-20T12:29:50.303Z,1023.26
2017-01-20T12:31:01.748Z,1023.22
2017-01-20T12:32:11.477Z,1023.19
2017-01-20T12:33:21.198Z,1023.24
2017-01-20T12:34:30.976Z,1023.21
2017-01-20T12:35:40.700Z,1023.21
2017-01-20T12:36:50.422Z,1023.22
2017-01-20T12:38:01.083Z,1023.26
2017-01-20T12:39:11.244Z,1023.29
2017-01-20T12:40:21.457Z,1023.3
2017-01-20T12:41:31.186Z,1023.31
2017-01-20T12:42:40.915Z,1023.23
2017-01-20T12:43:50.201Z,1023.23
2017-01-20T12:45:00.362Z,1023.24
2017-01-20T12:46:10.131Z,1023.24
2017-01-20T12:47:19.865Z,1023.25
2017-01-20T12:48:29.678Z,1023.25
2017-01-20T12:49:39.403Z,1023.21
2017-01-20T12:50:49.568Z,1023.2
2017-01-20T12:51:59.781Z,1023.2
2017-01-20T12:53:09.507Z,1023.25
2017-01-20T12:54:19.244Z,1023.22
2017-01-20T12:55:29.406Z,1023.24
2017-01-20T12:56:39.136Z,1023.22
2017-01-20T12:57:49.356Z,1023.21
2017-01-20T12:58:59.089Z,1023.19
2017-01-20T13:00:09.690Z,1023.22
2017-01-20T13:01:20.296Z,1023.17
2017-01-20T13:02:30.461Z,1023.18
2017-01-20T13:03:40.526Z,1023.21
2017-01-20T13:04:51.403Z,1023.17
2017-01-20T13:06:01.256Z,1023.17
2017-01-20T13:07:11.842Z,1023.16
2017-01-20T13:08:23.799Z,1023.15
2017-01-20T13:09:35.560Z,1023.14
2017-01-20T13:10:45.278Z,1023.13
2017-01-20T13:11:55.459Z,1023.12
2017-01-20T13:13:05.924Z,1023.14
2017-01-20T13:14:16.261Z,1023.13
2017-01-20T13:15:26.606Z,1023.14
2017-01-20T13:16:35.892Z,1023.15
2017-01-20T13:17:46.269Z,1023.13
2017-01-20T13:18:56.866Z,1023.15
2017-01-20T13:20:07.680Z,1023.14
2017-01-20T13:21:17.436Z,1023.18
2017-01-20T13:22:27.597Z,1023.19
2017-01-20T13:23:37.767Z,1023.19
2017-01-20T13:24:47.492Z,1023.19
2017-01-20T13:25:57.217Z,1023.16
2017-01-20T13:27:07.434Z,1023.16
2017-01-20T13:28:16.715Z,1023.15
2017-01-20T13:29:27.468Z,1023.17
2017-01-20T13:30:38.070Z,1023.23
2017-01-20T13:31:47.999Z,1023.17
2017-01-20T13:32:58.008Z,1023.23
2017-01-20T13:34:07.730Z,1023.18
2017-01-20T13:35:17.015Z,1023.09
2017-01-20T13:36:26.300Z,1023.1
2017-01-20T13:37:36.025Z,1023.08
2017-01-20T13:38:45.574Z,1023.07
2017-01-20T13:39:56.171Z,1023.03
2017-01-20T13:41:05.888Z,1023.03
2017-01-20T13:42:15.826Z,1023.03
2017-01-20T13:43:26.423Z,1023
2017-01-20T13:44:37.244Z,1022.98
2017-01-20T13:45:47.525Z,1022.97
2017-01-20T13:46:57.798Z,1022.97
2017-01-20T13:48:07.955Z,1022.96
2017-01-20T13:49:17.797Z,1022.98
2017-01-20T13:50:28.310Z,1022.94
2017-01-20T13:51:38.051Z,1022.94
2017-01-20T13:52:48.220Z,1022.91
2017-01-20T13:53:58.629Z,1022.9
2017-01-20T13:55:08.351Z,1022.93
2017-01-20T13:56:19.000Z,1022.9
2017-01-20T13:57:28.493Z,1022.91
2017-01-20T13:58:38.222Z,1022.87
2017-01-20T13:59:47.507Z,1022.95
2017-01-20T14:00:56.969Z,1022.92
2017-01-20T14:02:07.182Z,1022.93
2017-01-20T14:03:17.019Z,1022.95
2017-01-20T14:04:26.844Z,1022.93
2017-01-20T14:05:37.014Z,1022.97
2017-01-20T14:06:46.295Z,1022.92
2017-01-20T14:07:56.456Z,1022.99
2017-01-20T14:09:06.625Z,1022.95